createdAt,value
2019-01-05T00:01:06.863Z,102501.77
2019-01-05T00:03:02.769Z,102506.06
2019-01-05T00:05:10.280Z,102513.92
2019-01-05T00:07:12.011Z,102512.85
2019-01-05T00:09:24.448Z,102510.97
2019-01-05T00:11:18.253Z,102517.48
2019-01-05T00:13:15.346Z,102519.89
2019-01-05T00:15:15.438Z,102517.48
2019-01-05T00:17:08.420Z,102530.20
2019-01-05T00:19:03.094Z,102535.08
2019-01-05T00:20:57.332Z,102524.85
2019-01-05T00:23:08.365Z,102526.20
2019-01-05T00:25:04.168Z,102519.99
2019-01-05T00:26:58.397Z,102508.66
2019-01-05T00:28:55.157Z,102502.72
2019-01-05T00:30:55.729Z,102504.89
2019-01-05T00:32:54.311Z,102501.95
2019-01-05T00:35:02.227Z,102508.16
2019-01-05T00:37:03.934Z,102501.41
2019-01-05T00:39:04.117Z,102501.17
2019-01-05T00:40:54.434Z,102497.65
2019-01-05T00:42:58.390Z,102502.27
2019-01-05T00:44:52.634Z,102501.74
2019-01-05T00:47:09.952Z,102504.20
2019-01-05T00:49:58.280Z,102508.25
2019-01-05T00:51:49.697Z,102513.70
2019-01-05T00:53:56.546Z,102515.05
2019-01-05T00:56:07.170Z,102518.58
2019-01-05T00:58:08.415Z,102508.05
2019-01-05T01:00:01.790Z,102512.68
2019-01-05T01:02:02.411Z,102508.09
2019-01-05T01:04:01.830Z,102510.55
2019-01-05T01:06:05.089Z,102518.95
2019-01-05T01:08:01.378Z,102533.56
2019-01-05T01:10:20.334Z,102533.60
2019-01-05T01:12:22.256Z,102537.91
2019-01-05T01:14:37.784Z,102539.59
2019-01-05T01:16:36.542Z,102535.00
2019-01-05T01:18:31.369Z,102552.33
2019-01-05T01:20:33.263Z,102548.55
2019-01-05T01:22:22.491Z,102546.14
2019-01-05T01:24:20.377Z,102560.80
2019-01-05T01:26:19.158Z,102555.93
2019-01-05T01:28:23.500Z,102563.23
2019-01-05T01:30:16.158Z,102576.20
2019-01-05T01:32:22.674Z,102585.95
2019-01-05T01:34:15.606Z,102587.06
2019-01-05T01:36:23.686Z,102591.12
2019-01-05T01:38:46.631Z,102595.75
2019-01-05T01:40:50.333Z,102596.56
2019-01-05T01:42:46.580Z,102594.15
2019-01-05T01:44:41.966Z,102566.02
2019-01-05T01:46:37.185Z,102547.91
2019-01-05T01:48:47.017Z,102476.27
2019-01-05T01:50:45.001Z,102052.16
2019-01-05T01:52:37.488Z,101891.63
2019-01-05T01:54:44.575Z,101689.19
2019-01-05T01:56:37.393Z,101560.28
2019-01-05T01:58:32.386Z,101333.28
2019-01-05T02:00:31.803Z,100190.37
2019-01-05T02:02:28.819Z,99925.94
2019-01-05T02:04:38.868Z,99838.15
2019-01-05T02:06:31.146Z,99775.22
2019-01-05T02:08:36.103Z,99740.91
2019-01-05T02:10:31.028Z,99727.40
2019-01-05T02:12:39.344Z,99704.99
2019-01-05T02:14:55.279Z,99684.18
2019-01-05T02:16:57.467Z,99656.30
2019-01-05T02:19:07.035Z,99641.20
2019-01-05T02:21:38.725Z,99643.02
2019-01-05T02:24:47.143Z,99639.53
2019-01-05T02:27:14.339Z,99630.08
2019-01-05T02:29:55.108Z,99605.53
2019-01-05T02:32:11.654Z,99604.65
2019-01-05T02:34:57.772Z,99601.39
2019-01-05T02:37:29.297Z,99605.13
2019-01-05T02:40:09.032Z,99599.72
2019-01-05T02:43:08.849Z,99596.78
2019-01-05T02:45:49.032Z,99600.84
2019-01-05T02:48:32.551Z,99604.25
2019-01-05T02:51:04.281Z,99596.37
2019-01-05T02:53:29.733Z,99583.75
2019-01-05T02:56:04.884Z,99582.87
2019-01-05T02:58:26.008Z,99576.91
2019-01-05T03:00:56.871Z,99583.31
2019-01-05T03:03:22.727Z,99580.61
2019-01-05T03:05:42.955Z,99572.19
2019-01-05T03:08:41.461Z,99564.64
2019-01-05T03:11:35.197Z,99558.68
2019-01-05T03:14:28.623Z,99551.61
2019-01-05T03:17:07.085Z,99537.30
2019-01-05T03:19:47.191Z,99523.00
2019-01-05T03:22:37.457Z,99516.48
2019-01-05T03:24:54.251Z,99506.47
2019-01-05T03:27:41.507Z,99506.70
2019-01-05T03:30:44.912Z,99490.73
2019-01-05T03:33:39.266Z,99478.02
2019-01-05T03:36:21.796Z,99459.10
2019-01-05T03:39:23.062Z,99452.91
2019-01-05T03:42:04.873Z,99464.50
2019-01-05T03:44:54.493Z,99462.59
2019-01-05T03:47:35.485Z,99464.18
2019-01-05T03:50:09.036Z,99454.95
2019-01-05T03:52:41.304Z,99461.39
2019-01-05T03:55:38.126Z,99458.92
2019-01-05T03:57:56.455Z,99465.88
2019-01-05T04:00:57.554Z,99458.33
2019-01-05T04:03:40.074Z,99459.36
2019-01-05T04:06:19.679Z,99464.44
2019-01-05T04:09:19.950Z,99460.85
2019-01-05T04:12:14.282Z,99451.16
2019-01-05T04:14:54.188Z,99427.95
2019-01-05T04:17:30.292Z,99415.48
2019-01-05T04:20:15.242Z,99413.00
2019-01-05T04:23:13.574Z,99431.03
2019-01-05T04:26:00.731Z,99426.89
2019-01-05T04:28:40.344Z,99427.13
2019-01-05T04:31:06.719Z,99432.97
2019-01-05T04:33:35.721Z,99436.92
2019-01-05T04:36:10.257Z,99440.66
2019-01-05T04:38:41.244Z,99445.17
2019-01-05T04:41:10.153Z,99440.56
2019-01-05T04:43:50.506Z,99445.31
2019-01-05T04:46:33.250Z,99452.86
2019-01-05T04:49:38.514Z,99433.94
2019-01-05T04:51:50.074Z,99435.85
2019-01-05T04:54:40.589Z,99437.87
2019-01-05T04:57:15.646Z,99441.92
2019-01-05T04:59:55.172Z,99434.19
2019-01-05T05:02:35.573Z,99440.29
2019-01-05T05:05:03.899Z,99436.47
2019-01-05T05:07:28.726Z,99438.05
2019-01-05T05:10:05.876Z,99435.58
2019-01-05T05:12:48.560Z,99435.45
2019-01-05T05:15:08.211Z,99440.53
2019-01-05T05:17:24.066Z,99438.30
2019-01-05T05:19:51.887Z,99438.99
2019-01-05T05:22:28.048Z,99437.87
2019-01-05T05:25:12.007Z,99418.94
2019-01-05T05:27:27.429Z,99426.95
2019-01-05T05:30:00.456Z,99432.80
2019-01-05T05:32:33.530Z,99434.61
2019-01-05T05:35:13.218Z,99424.03
2019-01-05T05:38:01.343Z,99426.63
2019-01-05T05:40:52.692Z,99427.33
2019-01-05T05:43:28.483Z,99415.85
2019-01-05T05:46:07.619Z,99413.58
2019-01-05T05:49:11.361Z,99417.30
2019-01-05T05:51:45.017Z,99403.78
2019-01-05T05:54:38.947Z,99400.88
2019-01-05T05:57:15.620Z,99412.95
2019-01-05T05:59:49.118Z,99397.51
2019-01-05T06:02:10.091Z,99403.58
2019-01-05T06:04:49.578Z,99395.92
2019-01-05T06:07:37.029Z,99396.16
2019-01-05T06:10:21.034Z,99399.55
2019-01-05T06:12:54.985Z,99397.86
2019-01-05T06:16:02.488Z,99398.89
2019-01-05T06:19:05.756Z,99393.34
2019-01-05T06:21:41.255Z,99406.66
2019-01-05T06:24:42.442Z,99405.55
2019-01-05T06:27:12.963Z,99410.52
2019-01-05T06:29:49.718Z,99415.47
2019-01-05T06:32:46.600Z,99423.61
2019-01-05T06:35:13.289Z,99416.41
2019-01-05T06:37:31.334Z,99419.44
2019-01-05T06:40:10.863Z,99427.69
2019-01-05T06:42:38.724Z,99434.22
2019-01-05T06:45:15.948Z,99431.63
2019-01-05T06:48:13.655Z,99434.56
2019-01-05T06:50:57.487Z,99431.75
2019-01-05T06:53:30.738Z,99443.14
2019-01-05T06:55:45.427Z,99439.07
2019-01-05T06:58:04.478Z,99424.30
2019-01-05T07:00:57.822Z,99432.09
2019-01-05T07:03:41.660Z,99432.77
2019-01-05T07:06:21.626Z,99439.30
2019-01-05T07:08:57.783Z,99447.89
2019-01-05T07:11:26.007Z,99460.53
2019-01-05T07:13:55.352Z,99473.97
2019-01-05T07:16:17.920Z,99477.93
2019-01-05T07:18:47.050Z,99486.70
2019-01-05T07:21:24.086Z,99488.98
2019-01-05T07:24:20.020Z,99492.02
2019-01-05T07:26:59.425Z,99505.69
2019-01-05T07:29:31.773Z,99501.86
2019-01-05T07:32:02.924Z,99499.04
2019-01-05T07:34:35.290Z,99515.75
2019-01-05T07:36:58.580Z,99508.19
2019-01-05T07:39:41.437Z,99538.22
2019-01-05T07:42:12.172Z,99538.42
2019-01-05T07:44:48.772Z,99544.07
2019-01-05T07:47:33.338Z,99542.95
2019-01-05T07:50:05.113Z,99540.80
2019-01-05T07:52:41.244Z,99540.23
2019-01-05T07:55:22.773Z,99551.30
2019-01-05T07:58:17.687Z,99556.95
2019-01-05T08:00:56.405Z,99543.17
2019-01-05T08:03:25.404Z,99540.47
2019-01-05T08:05:54.692Z,99542.84
2019-01-05T08:08:33.670Z,99531.77
2019-01-05T08:10:58.123Z,99529.29
2019-01-05T08:13:52.560Z,99520.59
2019-01-05T08:16:43.961Z,99526.02
2019-01-05T08:19:32.599Z,99528.73
2019-01-05T08:22:04.926Z,99528.50
2019-01-05T08:24:48.913Z,99523.87
2019-01-05T08:27:26.903Z,99532.23
2019-01-05T08:29:54.170Z,99539.34
2019-01-05T08:32:39.406Z,99544.20
2019-01-05T08:35:29.985Z,99540.69
2019-01-05T08:37:57.559Z,99548.48
2019-01-05T08:40:26.679Z,99551.99
2019-01-05T08:43:00.362Z,99554.70
2019-01-05T08:45:50.385Z,99573.34
2019-01-05T08:48:22.557Z,99569.84
2019-01-05T08:50:47.022Z,99563.29
2019-01-05T08:53:47.315Z,99573.91
2019-01-05T08:56:09.577Z,99585.88
2019-01-05T08:58:55.384Z,99582.37
2019-01-05T09:01:37.560Z,99583.49
2019-01-05T09:04:35.460Z,99587.89
2019-01-05T09:07:27.302Z,99612.52
2019-01-05T09:10:19.633Z,99604.94
2019-01-05T09:13:13.902Z,99623.02
2019-01-05T09:16:04.205Z,99630.92
2019-01-05T09:18:29.249Z,99643.34
2019-01-05T09:21:23.309Z,99639.61
2019-01-05T09:23:51.145Z,99653.62
2019-01-05T09:26:29.439Z,99659.61
2019-01-05T09:29:17.593Z,99669.89
2019-01-05T09:31:53.944Z,99673.16
2019-01-05T09:34:31.833Z,99681.42
2019-01-05T09:36:52.490Z,99685.81
2019-01-05T09:39:33.241Z,99684.69
2019-01-05T09:42:23.924Z,99693.62
2019-01-05T09:45:16.260Z,99701.65
2019-01-05T09:48:06.922Z,99702.77
2019-01-05T09:51:08.374Z,99716.33
2019-01-05T09:53:43.642Z,99722.17
2019-01-05T09:56:15.827Z,99717.55
2019-01-05T09:58:48.219Z,99727.83
2019-01-05T10:01:25.447Z,99727.03
2019-01-05T10:04:08.706Z,99732.69
2019-01-05T10:06:49.917Z,99740.49
2019-01-05T10:09:39.757Z,99735.07
2019-01-05T10:12:25.862Z,99746.94
2019-01-05T10:14:54.200Z,99751.00
2019-01-05T10:17:24.434Z,99766.84
2019-01-05T10:20:04.553Z,99763.11
2019-01-05T10:22:34.289Z,99772.36
2019-01-05T10:25:23.288Z,99780.95
2019-01-05T10:28:27.585Z,99788.53
2019-01-05T10:31:05.071Z,99786.71
2019-01-05T10:33:33.322Z,99788.30
2019-01-05T10:36:12.695Z,99784.09
2019-01-05T10:38:55.168Z,99787.92
2019-01-05T10:41:24.858Z,99785.35
2019-01-05T10:44:30.054Z,99783.77
2019-01-05T10:47:22.154Z,99789.19
2019-01-05T10:50:09.120Z,99788.86
2019-01-05T10:52:54.696Z,99793.63
2019-01-05T10:55:34.466Z,99788.30
2019-01-05T10:58:16.768Z,99796.66
2019-01-05T11:00:55.070Z,99802.87
2019-01-05T11:03:38.167Z,99802.19
2019-01-05T11:06:31.620Z,99814.62
2019-01-05T11:09:00.664Z,99809.43
2019-01-05T11:11:53.587Z,99810.55
2019-01-05T11:14:21.624Z,99806.95
2019-01-05T11:16:49.459Z,99806.62
2019-01-05T11:19:40.608Z,99802.98
2019-01-05T11:22:04.007Z,99801.30
2019-01-05T11:24:37.397Z,99809.66
2019-01-05T11:27:28.589Z,99813.17
2019-01-05T11:29:55.405Z,99807.28
2019-01-05T11:32:34.584Z,99821.30
2019-01-05T11:35:05.275Z,99821.44
2019-01-05T11:37:40.265Z,99818.92
2019-01-05T11:40:12.362Z,99835.19
2019-01-05T11:43:00.873Z,99822.98
2019-01-05T11:45:42.246Z,99829.77
2019-01-05T11:48:12.217Z,99820.05
2019-01-05T11:50:39.702Z,99825.14
2019-01-05T11:53:37.485Z,99824.58
2019-01-05T11:56:00.695Z,99821.30
2019-01-05T11:58:39.702Z,99832.28
2019-01-05T12:01:28.305Z,99829.34
2019-01-05T12:04:06.407Z,99826.77
2019-01-05T12:06:35.082Z,99815.69
2019-01-05T12:09:16.437Z,99817.27
2019-01-05T12:12:04.597Z,99814.23
2019-01-05T12:14:49.130Z,99820.32
2019-01-05T12:17:36.816Z,99817.04
2019-01-05T12:20:16.741Z,99824.16
2019-01-05T12:23:12.414Z,99820.88
2019-01-05T12:26:00.505Z,99820.18
2019-01-05T12:28:50.762Z,99823.69
2019-01-05T12:31:22.896Z,99832.71
2019-01-05T12:34:09.865Z,99828.08
2019-01-05T12:36:48.997Z,99829.44
2019-01-05T12:39:33.206Z,99822.98
2019-01-05T12:42:18.085Z,99830.89
2019-01-05T12:45:13.905Z,99834.86
2019-01-05T12:47:53.532Z,99843.45
2019-01-05T12:50:23.109Z,99842.56
2019-01-05T12:52:52.936Z,99834.66
2019-01-05T12:55:25.377Z,99818.03
2019-01-05T12:58:00.103Z,99809.43
2019-01-05T13:00:28.641Z,99827.52
2019-01-05T13:03:16.212Z,99823.78
2019-01-05T13:05:41.667Z,99832.05
2019-01-05T13:08:31.512Z,99830.47
2019-01-05T13:11:01.050Z,99837.01
2019-01-05T13:13:33.825Z,99847.86
2019-01-05T13:16:10.419Z,99842.10
2019-01-05T13:18:42.535Z,99853.84
2019-01-05T13:21:18.120Z,99856.69
2019-01-05T13:24:13.466Z,99858.14
2019-01-05T13:27:10.295Z,99858.61
2019-01-05T13:30:05.908Z,99868.19
2019-01-05T13:32:32.379Z,99856.78
2019-01-05T13:35:14.563Z,99876.79
2019-01-05T13:37:47.346Z,99880.06
2019-01-05T13:41:06.455Z,99885.02
2019-01-05T13:44:01.633Z,99896.09
2019-01-05T13:46:27.533Z,99887.83
2019-01-05T13:48:46.538Z,99885.91
2019-01-05T13:51:27.801Z,99893.16
2019-01-05T13:53:36.479Z,99887.17
2019-01-05T13:56:03.799Z,99892.59
2019-01-05T13:58:01.456Z,99894.74
2019-01-05T14:00:11.239Z,99897.45
2019-01-05T14:02:16.265Z,99898.11
2019-01-05T14:04:16.863Z,99907.03
2019-01-05T14:06:30.295Z,99918.12
2019-01-05T14:08:42.936Z,99919.94
2019-01-05T14:10:46.240Z,99924.57
2019-01-05T14:12:42.362Z,99928.41
2019-01-05T14:14:38.198Z,99936.06
2019-01-05T14:16:39.783Z,99940.93
2019-01-05T14:18:52.519Z,99945.00
2019-01-05T14:20:55.940Z,99941.81
2019-01-05T14:22:52.285Z,99946.12
2019-01-05T14:24:52.184Z,99955.61
2019-01-05T14:26:49.307Z,99948.95
2019-01-05T14:28:48.323Z,99952.45
2019-01-05T14:30:59.557Z,99966.22
2019-01-05T14:32:55.447Z,99951.19
2019-01-05T14:35:09.006Z,99955.49
2019-01-05T14:37:09.818Z,99968.48
2019-01-05T14:39:13.058Z,99976.06
2019-01-05T14:41:15.969Z,99967.13
2019-01-05T14:43:18.918Z,99970.97
2019-01-05T14:45:19.061Z,99966.19
2019-01-05T14:47:13.194Z,99976.16
2019-01-05T14:49:06.121Z,99971.85
2019-01-05T14:51:00.750Z,99978.95
2019-01-05T14:53:08.029Z,99976.48
2019-01-05T14:55:02.488Z,99979.75
2019-01-05T14:56:58.397Z,99970.67
2019-01-05T14:59:04.082Z,99979.59
2019-01-05T15:01:02.064Z,99973.38
2019-01-05T15:02:56.327Z,99973.71
2019-01-05T15:04:52.507Z,99984.31
2019-01-05T15:06:45.482Z,99982.08
2019-01-05T15:08:49.721Z,99990.77
2019-01-05T15:10:46.322Z,99992.13
2019-01-05T15:12:39.872Z,99992.69
2019-01-05T15:14:34.450Z,99999.81
2019-01-05T15:16:30.222Z,100003.88
2019-01-05T15:18:29.463Z,100008.59
2019-01-05T15:20:24.527Z,100004.61
2019-01-05T15:22:31.000Z,100016.48
2019-01-05T15:24:23.791Z,100007.09
2019-01-05T15:26:19.465Z,100018.73
2019-01-05T15:28:16.119Z,100021.20
2019-01-05T15:30:14.485Z,100023.91
2019-01-05T15:32:09.167Z,100033.08
2019-01-05T15:34:03.151Z,100034.20
2019-01-05T15:35:56.003Z,100035.31
2019-01-05T15:38:02.513Z,100039.14
2019-01-05T15:40:17.798Z,100042.88
2019-01-05T15:42:17.214Z,100046.48
2019-01-05T15:44:30.039Z,100048.06
2019-01-05T15:46:26.195Z,100047.83
2019-01-05T15:48:27.358Z,100054.48
2019-01-05T15:50:20.379Z,100057.96
2019-01-05T15:52:32.561Z,100056.40
2019-01-05T15:54:19.614Z,100058.55
2019-01-05T15:56:20.371Z,100063.62
2019-01-05T15:58:24.639Z,100065.09
2019-01-05T16:00:21.858Z,100060.23
2019-01-05T16:02:29.756Z,100060.47
2019-01-05T16:04:30.117Z,100065.88
2019-01-05T16:06:27.719Z,100055.05
2019-01-05T16:08:22.663Z,100067.00
2019-01-05T16:10:15.594Z,100065.09
2019-01-05T16:12:11.819Z,100072.66
2019-01-05T16:16:53.416Z,100075.22
2019-01-05T16:19:06.981Z,100076.25
2019-01-05T16:21:07.429Z,100085.34
2019-01-05T16:22:59.789Z,100076.09
2019-01-05T16:24:55.118Z,100077.53
2019-01-05T16:26:49.339Z,100078.09
2019-01-05T16:28:46.121Z,100084.95
2019-01-05T16:30:45.587Z,100098.49
2019-01-05T16:32:54.772Z,100099.84
2019-01-05T16:35:05.508Z,100099.84
2019-01-05T16:36:58.026Z,100106.17
2019-01-05T16:38:53.283Z,100112.95
2019-01-05T16:40:47.755Z,100113.27
2019-01-05T16:42:40.482Z,100111.59
2019-01-05T16:44:34.264Z,100116.53
2019-01-05T16:46:29.954Z,100126.02
2019-01-05T16:48:22.409Z,100119.25
2019-01-05T16:50:19.721Z,100128.25
2019-01-05T16:52:14.231Z,100129.92
2019-01-05T16:54:11.802Z,100130.80
2019-01-05T16:56:06.505Z,100135.11
2019-01-05T16:58:10.446Z,100136.78
2019-01-05T17:00:20.673Z,100139.17
2019-01-05T17:02:13.529Z,100131.36
2019-01-05T17:04:21.372Z,100133.75
2019-01-05T17:06:13.321Z,100136.22
2019-01-05T17:08:13.687Z,100140.05
2019-01-05T17:10:14.575Z,100144.66
2019-01-05T17:12:29.393Z,100144.11
2019-01-05T17:14:20.496Z,100152.55
2019-01-05T17:16:29.687Z,100158.21
2019-01-05T17:18:40.309Z,100153.91
2019-01-05T17:20:45.330Z,100161.03
2019-01-05T17:22:40.940Z,100162.83
2019-01-05T17:24:36.258Z,100155.02
2019-01-05T17:26:44.113Z,100164.75
2019-01-05T17:28:53.292Z,100158.53
2019-01-05T17:30:59.745Z,100163.95
2019-01-05T17:33:23.297Z,100155.61
2019-01-05T17:35:12.830Z,100150.75
2019-01-05T17:37:14.785Z,100166.20
2019-01-05T17:39:28.752Z,100162.45
2019-01-05T17:41:40.524Z,100172.18
2019-01-05T17:43:49.450Z,100175.45
2019-01-05T17:45:50.227Z,100167.40
2019-01-05T17:47:48.511Z,100178.79
2019-01-05T17:49:45.480Z,100180.94
2019-01-05T17:51:47.226Z,100177.99
2019-01-05T17:53:50.562Z,100182.61
2019-01-05T17:55:43.238Z,100182.38
2019-01-05T17:57:42.332Z,100176.72
2019-01-05T17:59:38.120Z,100175.67
2019-01-05T18:01:56.463Z,100182.77
2019-01-05T18:03:52.491Z,100189.45
2019-01-05T18:06:05.476Z,100190.02
2019-01-05T18:07:56.297Z,100186.52
2019-01-05T18:10:00.770Z,100193.28
2019-01-05T18:12:00.359Z,100189.70
2019-01-05T18:13:57.450Z,100186.52
2019-01-05T18:15:50.848Z,100186.52
2019-01-05T18:17:47.175Z,100190.57
2019-01-05T18:19:47.095Z,100189.45
2019-01-05T18:21:40.932Z,100191.92
2019-01-05T18:23:33.394Z,100194.08
2019-01-05T18:25:29.764Z,100207.06
2019-01-05T18:27:25.325Z,100204.36
2019-01-05T18:29:34.226Z,100210.81
2019-01-05T18:31:28.129Z,100217.90
2019-01-05T18:33:28.603Z,100218.94
2019-01-05T18:35:31.716Z,100224.91
2019-01-05T18:37:25.973Z,100218.94
2019-01-05T18:39:29.189Z,100224.60
2019-01-05T18:41:35.538Z,100224.36
2019-01-05T18:43:37.387Z,100213.84
2019-01-05T18:45:35.352Z,100215.44
2019-01-05T18:47:43.405Z,100220.37
2019-01-05T18:49:43.294Z,100220.92
2019-01-05T18:51:57.289Z,100224.12
2019-01-05T18:53:50.181Z,100219.81
2019-01-05T18:55:58.348Z,100207.06
2019-01-05T18:58:10.039Z,100209.22
2019-01-05T19:00:17.821Z,100204.91
2019-01-05T19:02:10.821Z,100200.05
2019-01-05T19:04:17.411Z,100196.79
2019-01-05T19:06:29.812Z,100192.41
2019-01-05T19:08:43.016Z,100189.14
2019-01-05T19:10:54.489Z,100193.52
2019-01-05T19:12:52.700Z,100198.38
2019-01-05T19:14:49.223Z,100194.88
2019-01-05T19:16:46.495Z,100191.37
2019-01-05T19:18:46.781Z,100197.90
2019-01-05T19:21:10.747Z,100203.88
2019-01-05T19:23:06.991Z,100204.36
2019-01-05T19:25:02.583Z,100202.52
2019-01-05T19:27:00.116Z,100212.24
2019-01-05T19:28:56.562Z,100214.71
2019-01-05T19:30:49.369Z,100212.24
2019-01-05T19:32:49.839Z,100207.94
2019-01-05T19:34:48.359Z,100217.66
2019-01-05T19:36:41.088Z,100216.06
2019-01-05T19:38:48.180Z,100214.71
2019-01-05T19:40:39.482Z,100222.03
2019-01-05T19:42:36.566Z,100227.45
2019-01-05T19:44:40.806Z,100222.84
2019-01-05T19:46:52.557Z,100225.30
2019-01-05T19:49:00.340Z,100223.95
2019-01-05T19:51:15.709Z,100219.88
2019-01-05T19:53:18.691Z,100216.37
2019-01-05T19:55:19.981Z,100218.63
2019-01-05T19:57:23.776Z,100223.95
2019-01-05T19:59:21.282Z,100219.33
2019-01-05T20:01:19.535Z,100212.11
2019-01-05T20:03:16.581Z,100209.40
2019-01-05T20:05:15.522Z,100203.50
2019-01-05T20:07:14.323Z,100203.73
2019-01-05T20:09:14.858Z,100202.63
2019-01-05T20:11:13.826Z,100201.03
2019-01-05T20:13:06.558Z,100198.32
2019-01-05T20:15:03.645Z,100188.84
2019-01-05T20:17:12.791Z,100183.88
2019-01-05T20:19:19.327Z,100186.03
2019-01-05T20:21:24.193Z,100169.08
2019-01-05T20:23:30.891Z,100170.33
2019-01-05T20:25:28.720Z,100173.63
2019-01-05T20:27:24.414Z,100176.55
2019-01-05T20:29:16.854Z,100174.08
2019-01-05T20:31:09.719Z,100166.06
2019-01-05T20:33:20.243Z,100168.42
2019-01-05T20:35:13.113Z,100168.66
2019-01-05T20:37:10.860Z,100166.86
2019-01-05T20:39:04.762Z,100165.71
2019-01-05T20:41:02.304Z,100162.20
2019-01-05T20:42:59.295Z,100170.02
2019-01-05T20:44:53.054Z,100155.91
2019-01-05T20:46:45.842Z,100149.38
2019-01-05T20:48:34.246Z,100153.93
2019-01-05T20:50:50.296Z,100147.79
2019-01-05T20:53:02.928Z,100154.00
2019-01-05T20:55:10.699Z,100145.87
2019-01-05T20:57:06.734Z,100146.67
2019-01-05T20:59:15.455Z,100146.12
2019-01-05T21:01:20.564Z,100148.27
2019-01-05T21:03:29.142Z,100152.89
2019-01-05T21:05:32.526Z,100158.87
2019-01-05T21:07:34.502Z,100147.23
2019-01-05T21:09:41.717Z,100159.98
2019-01-05T21:11:34.264Z,100155.05
2019-01-05T21:13:34.192Z,100154.80
2019-01-05T21:15:30.062Z,100145.32
2019-01-05T21:17:53.821Z,100146.44
2019-01-05T21:20:15.320Z,100153.45
2019-01-05T21:22:11.767Z,100142.93
2019-01-05T21:24:25.512Z,100152.09
2019-01-05T21:26:24.726Z,100146.20
2019-01-05T21:28:33.105Z,100158.63
2019-01-05T21:30:50.344Z,100158.38
2019-01-05T21:32:53.392Z,100160.78
2019-01-05T21:34:48.456Z,100151.85
2019-01-05T21:36:57.246Z,100163.25
2019-01-05T21:39:16.042Z,100162.13
2019-01-05T21:41:18.673Z,100163.00
2019-01-05T21:43:33.854Z,100162.45
2019-01-05T21:45:38.571Z,100156.02
2019-01-05T21:47:35.327Z,100154.67
2019-01-05T21:49:36.454Z,100155.44
2019-01-05T21:51:39.305Z,100153.88
2019-01-05T21:53:44.801Z,100154.42
2019-01-05T21:55:38.762Z,100163.56
2019-01-05T21:57:28.807Z,100162.20
2019-01-05T21:59:28.457Z,100158.14
2019-01-05T22:01:25.701Z,100158.94
2019-01-05T22:03:15.930Z,100161.65
2019-01-05T22:05:26.608Z,100150.81
2019-01-05T22:07:20.857Z,100149.33
2019-01-05T22:09:20.568Z,100157.14
2019-01-05T22:11:34.312Z,100146.30
2019-01-05T22:13:30.125Z,100154.74
2019-01-05T22:15:25.288Z,100153.39
2019-01-05T22:17:22.962Z,100152.83
2019-01-05T22:19:27.679Z,100154.74
2019-01-05T22:21:34.375Z,100147.42
2019-01-05T22:23:51.098Z,100152.03
2019-01-05T22:26:05.183Z,100154.19
2019-01-05T22:27:59.893Z,100141.76
2019-01-05T22:29:56.026Z,100148.77
2019-01-05T22:32:09.066Z,100144.70
2019-01-05T22:34:00.737Z,100140.89
2019-01-05T22:35:59.052Z,100140.89
2019-01-05T22:38:05.261Z,100142.31
2019-01-05T22:40:00.585Z,100151.00
2019-01-05T22:42:17.444Z,100146.06
2019-01-05T22:44:29.058Z,100163.42
2019-01-05T22:46:29.866Z,100147.49
2019-01-05T22:48:38.770Z,100157.77
2019-01-05T22:50:43.206Z,100163.98
2019-01-05T22:52:49.847Z,100164.47
2019-01-05T22:54:42.677Z,100155.30
2019-01-05T22:56:41.492Z,100147.73
2019-01-05T22:58:37.035Z,100143.19
2019-01-05T23:00:38.690Z,100150.20
2019-01-05T23:02:53.252Z,100144.78
2019-01-05T23:04:58.001Z,100142.31
2019-01-05T23:07:26.859Z,100148.05
2019-01-05T23:09:39.286Z,100151.88
2019-01-05T23:11:36.978Z,100139.13
2019-01-05T23:13:50.829Z,100097.47
2019-01-05T23:15:50.420Z,100107.42
2019-01-05T23:17:48.691Z,100098.50
2019-01-05T23:20:02.765Z,100104.72
2019-01-05T23:22:16.400Z,100097.15
2019-01-05T23:24:19.853Z,100087.98
2019-01-05T23:26:12.679Z,100082.02
2019-01-05T23:28:09.409Z,100080.10
2019-01-05T23:30:17.217Z,100074.45
2019-01-05T23:32:10.899Z,100070.14
2019-01-05T23:34:03.887Z,100055.25
2019-01-05T23:36:08.804Z,100045.22
2019-01-05T23:38:06.241Z,100040.36
2019-01-05T23:40:12.463Z,100031.67
2019-01-05T23:42:18.639Z,100025.22
2019-01-05T23:44:13.940Z,100021.95
2019-01-05T23:46:26.492Z,100022.27
2019-01-05T23:48:23.802Z,100030.40
2019-01-05T23:50:39.409Z,100024.66
2019-01-05T23:52:32.528Z,100024.42
2019-01-05T23:54:44.495Z,100020.13
2019-01-05T23:56:39.016Z,100020.92
2019-01-05T23:58:43.472Z,100015.83
